Terminal Aerodrome Forecast
Issued by NWS Jackson, MS

Home | Current Version | Previous Version | Text Only | Print | Product List | Glossary On
Versions: 1 2 3 4 5 6 7 8 9 10 11 12 13 14 15 16
000
FTUS44 KJAN 251533 AAB
TAFJAN
TAF AMD
KJAN 251533Z 2516/2612 13004KT P6SM SCT010 BKN020
     FM251700 17010KT P6SM FEW040 BKN250
     FM260000 16005KT P6SM SCT250=

USA.gov is the U.S. government's official web portal to all federal, state and local government web resources and services.